createdAt,value
2022-09-20T00:01:39.695Z,8.85
2022-09-20T00:04:11.579Z,9.29
2022-09-20T00:06:39.609Z,9.38
2022-09-20T00:09:07.587Z,8.83
2022-09-20T00:11:36.735Z,8.98
2022-09-20T00:14:08.348Z,9.09
2022-09-20T00:16:38.000Z,8.91
2022-09-20T00:19:06.536Z,9.08
2022-09-20T00:21:37.731Z,9.03
2022-09-20T00:24:08.380Z,9.08
2022-09-20T00:26:36.384Z,8.92
2022-09-20T00:29:05.342Z,9.10
2022-09-20T00:31:33.373Z,9.05
2022-09-20T00:34:19.029Z,9.32
2022-09-20T00:36:48.751Z,9.20
2022-09-20T00:39:17.374Z,9.47
2022-09-20T00:41:45.502Z,9.21
2022-09-20T00:44:31.882Z,9.15
2022-09-20T00:47:01.066Z,9.23
2022-09-20T00:49:29.482Z,9.16
2022-09-20T00:52:01.566Z,9.13
2022-09-20T00:54:31.375Z,9.11
2022-09-20T00:57:01.743Z,9.12
2022-09-20T00:59:34.110Z,9.08
2022-09-20T01:02:03.825Z,9.10
2022-09-20T01:04:35.730Z,8.63
2022-09-20T01:07:07.069Z,8.90
2022-09-20T01:09:35.071Z,8.72
2022-09-20T01:12:07.746Z,9.07
2022-09-20T01:14:36.180Z,8.81
2022-09-20T01:17:05.798Z,8.87
2022-09-20T01:19:38.682Z,8.86
2022-09-20T01:22:23.228Z,8.94
2022-09-20T01:24:59.754Z,9.20
2022-09-20T01:27:37.405Z,9.17
2022-09-20T01:30:07.348Z,9.17
2022-09-20T01:32:41.252Z,9.09
2022-09-20T01:35:12.495Z,9.07
2022-09-20T01:37:48.166Z,9.22
2022-09-20T01:40:20.537Z,9.49
2022-09-20T01:42:56.925Z,9.60
2022-09-20T01:45:28.353Z,9.32
2022-09-20T01:48:01.587Z,9.49
2022-09-20T01:50:34.734Z,9.10
2022-09-20T01:53:12.336Z,9.46
2022-09-20T01:55:50.418Z,9.21
2022-09-20T01:59:01.932Z,9.25
2022-09-20T02:01:48.958Z,9.22
2022-09-20T02:04:31.679Z,9.43
2022-09-20T02:07:17.618Z,9.58
2022-09-20T02:09:54.358Z,9.18
2022-09-20T02:12:33.600Z,9.10
2022-09-20T02:15:07.868Z,9.12
2022-09-20T02:17:42.684Z,9.26
2022-09-20T02:20:16.962Z,9.33
2022-09-20T02:22:54.113Z,8.76
2022-09-20T02:25:30.321Z,8.92
2022-09-20T02:28:08.174Z,9.08
2022-09-20T02:30:45.694Z,8.98
2022-09-20T02:33:30.148Z,9.29
2022-09-20T02:36:08.781Z,9.23
2022-09-20T02:38:46.162Z,9.24
2022-09-20T02:41:32.130Z,9.45
2022-09-20T02:44:03.979Z,9.52
2022-09-20T02:46:38.700Z,9.24
2022-09-20T02:49:11.618Z,9.39
2022-09-20T02:51:42.615Z,9.15
2022-09-20T02:54:16.354Z,8.92
2022-09-20T02:56:48.722Z,8.78
2022-09-20T02:59:24.057Z,9.01
2022-09-20T03:01:57.382Z,8.56
2022-09-20T03:04:34.138Z,8.72
2022-09-20T03:07:04.858Z,8.76
2022-09-20T03:09:36.108Z,9.15
2022-09-20T03:12:12.557Z,8.81
2022-09-20T03:14:43.331Z,8.75
2022-09-20T03:17:18.881Z,8.85
2022-09-20T03:20:01.579Z,8.83
2022-09-20T03:22:37.170Z,8.94
2022-09-20T03:25:14.977Z,9.00
2022-09-20T03:27:49.913Z,8.70
2022-09-20T03:30:25.264Z,8.75
2022-09-20T03:33:01.055Z,9.10
2022-09-20T03:35:41.410Z,9.00
2022-09-20T03:38:20.612Z,9.06
2022-09-20T03:41:08.630Z,8.88
2022-09-20T03:43:44.230Z,9.57
2022-09-20T03:46:17.498Z,8.93
2022-09-20T03:48:57.689Z,8.83
2022-09-20T03:51:33.815Z,8.71
2022-09-20T03:54:14.183Z,8.57
2022-09-20T03:56:53.848Z,8.58
2022-09-20T03:59:43.432Z,8.34
2022-09-20T04:02:21.829Z,8.39
2022-09-20T04:04:54.067Z,8.48
2022-09-20T04:07:33.871Z,8.30
2022-09-20T04:10:17.173Z,8.27
2022-09-20T04:12:50.927Z,8.24
2022-09-20T04:15:23.842Z,8.31
2022-09-20T04:17:58.100Z,8.74
2022-09-20T04:20:32.263Z,8.54
2022-09-20T04:23:06.542Z,8.49
2022-09-20T04:25:43.043Z,8.26
2022-09-20T04:28:14.970Z,8.52
2022-09-20T04:30:44.233Z,8.27
2022-09-20T04:33:17.015Z,8.19
2022-09-20T04:36:06.361Z,8.35
2022-09-20T04:38:36.631Z,8.66
2022-09-20T04:41:17.924Z,8.68
2022-09-20T04:44:03.205Z,8.93
2022-09-20T04:46:56.238Z,8.53
2022-09-20T04:49:42.297Z,8.62
2022-09-20T04:52:27.897Z,8.98
2022-09-20T04:55:29.131Z,8.49
2022-09-20T04:58:09.448Z,8.74
2022-09-20T05:00:43.773Z,7.87
2022-09-20T05:03:23.811Z,7.92
2022-09-20T05:06:06.362Z,7.69
2022-09-20T05:08:58.006Z,7.61
2022-09-20T05:11:47.158Z,7.66
2022-09-20T05:14:38.507Z,7.60
2022-09-20T05:17:14.736Z,7.58
2022-09-20T05:19:50.854Z,7.46
2022-09-20T05:22:42.647Z,7.50
2022-09-20T05:25:27.568Z,7.79
2022-09-20T05:27:58.200Z,7.67
2022-09-20T05:30:35.073Z,7.85
2022-09-20T05:33:11.518Z,8.47
2022-09-20T05:35:43.239Z,8.93
2022-09-20T05:38:14.779Z,8.68
2022-09-20T05:40:53.205Z,8.61
2022-09-20T05:43:26.945Z,8.46
2022-09-20T05:46:04.769Z,8.69
2022-09-20T05:48:39.643Z,9.20
2022-09-20T05:51:13.571Z,9.43
2022-09-20T05:53:59.255Z,9.25
2022-09-20T05:56:35.857Z,8.98
2022-09-20T05:59:22.432Z,9.80
2022-09-20T06:02:02.091Z,9.50
2022-09-20T06:04:39.646Z,9.68
2022-09-20T06:07:14.639Z,9.12
2022-09-20T06:09:51.232Z,8.56
2022-09-20T06:12:29.753Z,8.46
2022-09-20T06:15:03.201Z,8.34
2022-09-20T06:17:35.819Z,8.50
2022-09-20T06:20:17.044Z,8.65
2022-09-20T06:22:47.109Z,9.50
2022-09-20T06:25:17.669Z,9.25
2022-09-20T06:27:48.206Z,8.74
2022-09-20T06:30:18.006Z,8.64
2022-09-20T06:32:57.314Z,8.88
2022-09-20T06:35:27.235Z,9.62
2022-09-20T06:38:16.101Z,8.66
2022-09-20T06:41:03.929Z,8.51
2022-09-20T06:43:31.979Z,8.76
2022-09-20T06:46:00.099Z,9.28
2022-09-20T06:48:31.503Z,9.00
2022-09-20T06:51:02.566Z,9.61
2022-09-20T06:53:32.539Z,9.43
2022-09-20T06:56:01.248Z,9.84
2022-09-20T06:58:29.583Z,10.14
2022-09-20T07:00:57.850Z,10.53
2022-09-20T07:03:25.951Z,10.55
2022-09-20T07:05:55.280Z,10.60
2022-09-20T07:08:23.350Z,10.84
2022-09-20T07:10:51.404Z,10.88
2022-09-20T07:13:21.392Z,10.81
2022-09-20T07:15:50.580Z,10.95
2022-09-20T07:18:18.538Z,10.95
2022-09-20T07:20:47.102Z,11.08
2022-09-20T07:23:19.267Z,10.95
2022-09-20T07:25:47.307Z,11.20
2022-09-20T07:28:19.819Z,11.16
2022-09-20T07:30:48.153Z,10.99
2022-09-20T07:33:21.442Z,11.12
2022-09-20T07:35:49.933Z,10.98
2022-09-20T07:38:19.353Z,11.50
2022-09-20T07:40:47.383Z,11.66
2022-09-20T07:43:15.377Z,11.59
2022-09-20T07:45:43.438Z,11.56
2022-09-20T07:48:11.474Z,11.65
2022-09-20T07:50:39.568Z,11.76
2022-09-20T07:53:07.604Z,11.44
2022-09-20T07:55:37.027Z,11.30
2022-09-20T07:58:05.046Z,11.75
2022-09-20T08:00:33.032Z,11.92
2022-09-20T08:03:01.758Z,12.02
2022-09-20T08:05:30.617Z,11.51
2022-09-20T08:07:59.729Z,12.21
2022-09-20T08:10:28.170Z,12.68
2022-09-20T08:15:45.513Z,12.38
2022-09-20T08:18:16.195Z,12.51
2022-09-20T08:20:46.600Z,12.29
2022-09-20T08:23:23.405Z,12.03
2022-09-20T08:25:52.097Z,12.54
2022-09-20T08:28:21.422Z,12.36
2022-09-20T08:30:49.401Z,12.91
2022-09-20T08:33:17.397Z,12.56
2022-09-20T08:35:49.121Z,12.57
2022-09-20T08:41:07.282Z,13.54
2022-09-20T08:43:39.751Z,13.59
2022-09-20T08:46:11.867Z,12.55
2022-09-20T08:48:42.046Z,13.54
2022-09-20T08:51:11.406Z,13.75
2022-09-20T08:53:49.261Z,13.43
2022-09-20T08:56:17.677Z,13.39
2022-09-20T08:58:49.579Z,13.81
2022-09-20T09:01:21.897Z,13.72
2022-09-20T09:03:53.097Z,13.05
2022-09-20T09:06:22.648Z,12.71
2022-09-20T09:08:53.536Z,13.88
2022-09-20T09:11:23.460Z,13.46
2022-09-20T09:13:54.323Z,13.28
2022-09-20T09:16:28.751Z,13.31
2022-09-20T09:19:26.033Z,13.21
2022-09-20T09:21:57.165Z,13.22
2022-09-20T09:24:25.514Z,13.64
2022-09-20T09:27:05.602Z,13.62
2022-09-20T09:29:35.168Z,14.30
2022-09-20T09:32:19.686Z,14.66
2022-09-20T09:34:47.674Z,13.89
2022-09-20T09:37:28.780Z,14.12
2022-09-20T09:40:07.461Z,13.47
2022-09-20T09:42:36.145Z,13.23
2022-09-20T09:45:27.137Z,13.97
2022-09-20T09:47:55.376Z,14.04
2022-09-20T09:50:26.831Z,13.75
2022-09-20T09:53:10.604Z,13.86
2022-09-20T09:55:56.278Z,13.95
2022-09-20T09:58:33.027Z,13.33
2022-09-20T10:01:05.352Z,13.06
2022-09-20T10:03:41.531Z,13.65
2022-09-20T10:06:16.585Z,14.06
2022-09-20T10:08:51.035Z,13.67
2022-09-20T10:11:25.086Z,13.86
2022-09-20T10:14:03.072Z,13.94
2022-09-20T10:16:39.658Z,14.04
2022-09-20T10:19:22.519Z,14.15
2022-09-20T10:21:56.170Z,14.79
2022-09-20T10:24:30.987Z,13.89
2022-09-20T10:27:08.068Z,14.56
2022-09-20T10:29:42.105Z,14.13
2022-09-20T10:32:20.407Z,14.10
2022-09-20T10:34:57.636Z,13.92
2022-09-20T10:37:29.575Z,13.26
2022-09-20T10:40:03.033Z,14.19
2022-09-20T10:42:53.645Z,14.26
2022-09-20T10:45:59.090Z,14.15
2022-09-20T10:48:21.867Z,13.35
2022-09-20T10:50:52.661Z,13.43
2022-09-20T10:53:29.532Z,13.91
2022-09-20T10:56:04.129Z,13.57
2022-09-20T10:58:56.164Z,13.72
2022-09-20T11:01:28.510Z,14.07
2022-09-20T11:04:03.378Z,13.93
2022-09-20T11:06:41.095Z,14.57
2022-09-20T11:09:14.268Z,14.07
2022-09-20T11:11:44.363Z,14.45
2022-09-20T11:14:14.733Z,14.53
2022-09-20T11:16:45.600Z,15.06
2022-09-20T11:19:19.952Z,14.81
2022-09-20T11:21:49.706Z,14.66
2022-09-20T11:24:27.861Z,14.64
2022-09-20T11:26:57.331Z,14.50
2022-09-20T11:29:29.541Z,14.59
2022-09-20T11:32:02.379Z,14.55
2022-09-20T11:34:34.136Z,14.56
2022-09-20T11:37:03.620Z,14.00
2022-09-20T11:39:36.460Z,14.47
2022-09-20T11:42:06.022Z,14.87
2022-09-20T11:44:34.909Z,15.04
2022-09-20T11:47:07.401Z,15.42
2022-09-20T11:49:41.478Z,14.88
2022-09-20T11:52:21.009Z,15.41
2022-09-20T11:55:13.071Z,15.07
2022-09-20T11:57:41.259Z,15.25
2022-09-20T12:00:10.197Z,15.07
2022-09-20T12:02:45.546Z,15.29
2022-09-20T12:05:26.228Z,15.59
2022-09-20T12:07:55.916Z,15.33
2022-09-20T12:10:25.728Z,15.72
2022-09-20T12:12:57.567Z,15.75
2022-09-20T12:15:26.907Z,15.84
2022-09-20T12:18:19.199Z,15.86
2022-09-20T12:21:05.792Z,14.86
2022-09-20T12:24:09.690Z,14.83
2022-09-20T12:26:45.107Z,14.74
2022-09-20T12:29:32.920Z,15.81
2022-09-20T12:32:01.861Z,16.09
2022-09-20T12:34:35.519Z,16.24
2022-09-20T12:37:24.524Z,15.76
2022-09-20T12:39:53.764Z,15.12
2022-09-20T12:42:29.173Z,15.36
2022-09-20T12:45:00.236Z,15.09
2022-09-20T12:47:30.031Z,15.53
2022-09-20T12:50:16.406Z,15.30
2022-09-20T12:53:00.583Z,15.48
2022-09-20T12:55:49.547Z,15.51
2022-09-20T12:58:22.859Z,15.29
2022-09-20T13:00:52.143Z,14.99
2022-09-20T13:03:24.833Z,14.59
2022-09-20T13:06:13.042Z,14.24
2022-09-20T13:08:44.329Z,14.31
2022-09-20T13:11:17.299Z,14.20
2022-09-20T13:13:49.057Z,14.28
2022-09-20T13:16:22.391Z,14.19
2022-09-20T13:18:58.951Z,14.21
2022-09-20T13:21:27.872Z,14.23
2022-09-20T13:23:57.533Z,14.09
2022-09-20T13:26:27.513Z,14.10
2022-09-20T13:28:57.012Z,14.10
2022-09-20T13:31:26.226Z,13.93
2022-09-20T13:33:54.573Z,13.97
2022-09-20T13:36:27.702Z,13.45
2022-09-20T13:38:58.610Z,13.13
2022-09-20T13:41:30.173Z,13.20
2022-09-20T13:43:58.224Z,13.04
2022-09-20T13:46:30.120Z,13.07
2022-09-20T13:49:00.491Z,13.25
2022-09-20T13:51:29.622Z,13.27
2022-09-20T13:54:20.173Z,13.42
2022-09-20T13:56:51.022Z,14.04
2022-09-20T13:59:19.651Z,13.80
2022-09-20T14:01:50.571Z,13.99
2022-09-20T14:04:21.296Z,14.58
2022-09-20T14:06:50.155Z,14.69
2022-09-20T14:09:21.281Z,14.07
2022-09-20T14:11:50.826Z,14.47
2022-09-20T14:14:22.331Z,14.50
2022-09-20T14:16:51.275Z,14.51
2022-09-20T14:19:20.880Z,14.54
2022-09-20T14:21:49.382Z,14.08
2022-09-20T14:24:26.136Z,14.28
2022-09-20T14:27:04.278Z,14.61
2022-09-20T14:29:39.961Z,14.82
2022-09-20T14:32:27.573Z,15.93
2022-09-20T14:35:01.005Z,15.88
2022-09-20T14:37:31.407Z,16.02
2022-09-20T14:40:00.937Z,15.15
2022-09-20T14:42:32.487Z,15.52
2022-09-20T14:45:00.650Z,15.43
2022-09-20T14:47:29.698Z,15.46
2022-09-20T14:49:58.946Z,15.83
2022-09-20T14:52:36.408Z,15.73
2022-09-20T14:55:18.342Z,15.57
2022-09-20T14:57:48.549Z,15.27
2022-09-20T15:00:17.523Z,15.27
2022-09-20T15:02:46.542Z,15.16
2022-09-20T15:05:19.303Z,15.37
2022-09-20T15:07:47.773Z,15.36
2022-09-20T15:10:18.044Z,15.39
2022-09-20T15:12:46.040Z,14.95
2022-09-20T15:15:16.778Z,14.96
2022-09-20T15:17:45.552Z,14.81
2022-09-20T15:20:15.105Z,15.25
2022-09-20T15:22:43.265Z,15.15
2022-09-20T15:25:14.274Z,14.71
2022-09-20T15:27:44.365Z,14.68
2022-09-20T15:30:13.460Z,14.82
2022-09-20T15:32:43.984Z,14.34
2022-09-20T15:35:13.940Z,14.17
2022-09-20T15:37:42.285Z,14.66
2022-09-20T15:40:10.783Z,15.01
2022-09-20T15:42:41.482Z,15.38
2022-09-20T15:45:10.520Z,15.02
2022-09-20T15:47:38.609Z,14.97
2022-09-20T15:50:09.137Z,14.77
2022-09-20T15:52:39.819Z,14.71
2022-09-20T15:55:08.554Z,14.59
2022-09-20T15:57:36.548Z,14.57
2022-09-20T16:00:04.906Z,14.08
2022-09-20T16:02:36.848Z,14.34
2022-09-20T16:05:05.893Z,14.47
2022-09-20T16:07:35.735Z,14.28
2022-09-20T16:10:03.772Z,14.24
2022-09-20T16:12:31.752Z,14.28
2022-09-20T16:14:59.782Z,14.27
2022-09-20T16:17:41.658Z,14.12
2022-09-20T16:20:10.057Z,14.08
2022-09-20T16:22:39.459Z,14.33
2022-09-20T16:25:08.623Z,14.22
2022-09-20T16:27:36.611Z,14.09
2022-09-20T16:30:04.883Z,13.67
2022-09-20T16:32:32.917Z,13.87
2022-09-20T16:35:03.773Z,13.93
2022-09-20T16:37:32.720Z,13.56
2022-09-20T16:40:02.346Z,13.72
2022-09-20T16:42:30.426Z,13.68
2022-09-20T16:44:58.556Z,13.83
2022-09-20T16:47:26.624Z,13.47
2022-09-20T16:49:54.909Z,13.64
2022-09-20T16:52:23.075Z,13.76
2022-09-20T16:54:51.334Z,13.58
2022-09-20T16:57:22.313Z,13.32
2022-09-20T16:59:51.808Z,13.32
2022-09-20T17:02:19.799Z,13.45
2022-09-20T17:04:50.462Z,13.19
2022-09-20T17:07:18.472Z,13.16
2022-09-20T17:09:46.519Z,13.17
2022-09-20T17:12:18.696Z,12.90
2022-09-20T17:14:48.008Z,12.91
2022-09-20T17:17:15.958Z,12.92
2022-09-20T17:19:43.975Z,12.92
2022-09-20T17:22:12.040Z,12.90
2022-09-20T17:24:40.078Z,12.83
2022-09-20T17:27:10.772Z,12.65
2022-09-20T17:29:38.728Z,12.71
2022-09-20T17:32:08.246Z,12.66
2022-09-20T17:34:36.636Z,12.59
2022-09-20T17:37:04.728Z,12.64
2022-09-20T17:39:32.797Z,12.56
2022-09-20T17:42:01.339Z,12.46
2022-09-20T17:44:29.373Z,12.52
2022-09-20T17:46:57.467Z,12.36
2022-09-20T17:49:27.686Z,12.63
2022-09-20T17:51:56.272Z,12.33
2022-09-20T17:54:24.820Z,12.50
2022-09-20T17:56:55.570Z,12.53
2022-09-20T17:59:24.495Z,12.56
2022-09-20T18:01:54.204Z,12.18
2022-09-20T18:04:24.257Z,11.86
2022-09-20T18:06:54.467Z,11.78
2022-09-20T18:09:24.105Z,11.93
2022-09-20T18:11:52.994Z,11.77
2022-09-20T18:14:23.049Z,11.52
2022-09-20T18:16:53.814Z,11.60
2022-09-20T18:19:22.750Z,11.56
2022-09-20T18:21:51.739Z,11.72
2022-09-20T18:24:21.065Z,11.49
2022-09-20T18:26:49.012Z,12.12
2022-09-20T18:29:18.111Z,11.76
2022-09-20T18:31:47.496Z,11.50
2022-09-20T18:34:18.093Z,11.28
2022-09-20T18:36:48.318Z,11.60
2022-09-20T18:39:16.421Z,11.65
2022-09-20T18:41:45.807Z,11.18
2022-09-20T18:44:14.589Z,11.16
2022-09-20T18:46:43.064Z,11.02
2022-09-20T18:49:14.957Z,10.99
2022-09-20T18:51:43.596Z,10.93
2022-09-20T18:54:14.072Z,10.89
2022-09-20T18:56:43.296Z,10.94
2022-09-20T18:59:16.592Z,10.78
2022-09-20T19:02:02.371Z,10.65
2022-09-20T19:04:34.610Z,10.68
2022-09-20T19:07:08.156Z,10.64
2022-09-20T19:09:39.997Z,10.74
2022-09-20T19:12:12.327Z,10.82
2022-09-20T19:14:50.939Z,10.87
2022-09-20T19:17:24.466Z,10.94
2022-09-20T19:19:55.655Z,10.91
2022-09-20T19:22:29.523Z,10.94
2022-09-20T19:25:05.242Z,10.96
2022-09-20T19:27:33.545Z,10.74
2022-09-20T19:30:03.331Z,10.97
2022-09-20T19:32:31.653Z,10.86
2022-09-20T19:35:01.616Z,11.28
2022-09-20T19:37:34.216Z,11.16
2022-09-20T19:40:09.747Z,11.07
2022-09-20T19:42:43.927Z,11.00
2022-09-20T19:45:17.259Z,10.35
2022-09-20T19:47:50.563Z,10.18
2022-09-20T19:50:27.749Z,10.28
2022-09-20T19:52:58.336Z,10.59
2022-09-20T19:55:28.991Z,9.98
2022-09-20T19:57:59.577Z,10.23
2022-09-20T20:00:29.999Z,10.77
2022-09-20T20:02:58.293Z,10.32
2022-09-20T20:05:27.621Z,10.32
2022-09-20T20:08:00.496Z,10.57
2022-09-20T20:10:34.604Z,10.79
2022-09-20T20:13:31.568Z,10.53
2022-09-20T20:16:03.631Z,10.37
2022-09-20T20:18:35.951Z,10.21
2022-09-20T20:21:04.626Z,10.14
2022-09-20T20:23:44.315Z,9.99
2022-09-20T20:26:19.391Z,10.06
2022-09-20T20:28:47.429Z,10.26
2022-09-20T20:31:16.896Z,9.97
2022-09-20T20:33:44.930Z,10.16
2022-09-20T20:36:12.941Z,10.08
2022-09-20T20:38:41.581Z,9.93
2022-09-20T20:41:10.567Z,9.96
2022-09-20T20:43:41.186Z,10.11
2022-09-20T20:46:10.635Z,9.49
2022-09-20T20:48:40.001Z,9.26
2022-09-20T20:51:09.439Z,9.26
2022-09-20T20:53:38.357Z,9.10
2022-09-20T20:56:08.169Z,9.07
2022-09-20T20:58:37.859Z,9.39
2022-09-20T21:01:10.499Z,9.35
2022-09-20T21:03:41.093Z,9.48
2022-09-20T21:06:09.655Z,9.24
2022-09-20T21:08:39.003Z,8.89
2022-09-20T21:11:07.727Z,8.81
2022-09-20T21:13:36.652Z,9.04
2022-09-20T21:16:08.934Z,9.16
2022-09-20T21:18:41.190Z,8.99
2022-09-20T21:21:15.094Z,8.89
2022-09-20T21:23:43.284Z,8.84
2022-09-20T21:26:12.483Z,8.81
2022-09-20T21:28:41.448Z,8.87
2022-09-20T21:31:10.050Z,8.86
2022-09-20T21:33:39.043Z,8.67
2022-09-20T21:36:09.178Z,8.73
2022-09-20T21:38:39.816Z,9.03
2022-09-20T21:41:08.892Z,8.48
2022-09-20T21:43:37.325Z,8.44
2022-09-20T21:46:05.511Z,8.23
2022-09-20T21:48:36.528Z,8.01
2022-09-20T21:51:06.215Z,8.07
2022-09-20T21:53:35.635Z,8.11
2022-09-20T21:56:04.982Z,8.09
2022-09-20T21:58:34.176Z,8.08
2022-09-20T22:02:38.418Z,7.55
2022-09-20T22:05:06.756Z,7.77
2022-09-20T22:07:35.548Z,7.61
2022-09-20T22:10:03.543Z,7.58
2022-09-20T22:12:31.551Z,7.64
2022-09-20T22:14:59.579Z,7.29
2022-09-20T22:17:29.466Z,7.56
2022-09-20T22:19:59.428Z,7.22
2022-09-20T22:22:27.966Z,7.35
2022-09-20T22:24:56.018Z,7.30
2022-09-20T22:27:24.074Z,7.29
2022-09-20T22:29:52.451Z,7.16
2022-09-20T22:32:22.803Z,7.14
2022-09-20T22:34:50.839Z,6.96
2022-09-20T22:37:20.384Z,7.16
2022-09-20T22:39:48.330Z,7.16
2022-09-20T22:42:16.321Z,7.24
2022-09-20T22:44:46.833Z,7.30
2022-09-20T22:47:14.811Z,7.20
2022-09-20T22:49:42.851Z,7.14
2022-09-20T22:52:12.929Z,7.09
2022-09-20T22:54:46.565Z,7.04
2022-09-20T22:57:14.546Z,6.89
2022-09-20T22:59:42.506Z,6.97
2022-09-20T23:02:12.674Z,6.90
2022-09-20T23:04:40.665Z,6.93
2022-09-20T23:07:08.898Z,6.77
2022-09-20T23:09:36.897Z,6.61
2022-09-20T23:12:06.326Z,6.87
2022-09-20T23:14:36.383Z,7.05
2022-09-20T23:17:04.427Z,6.65
2022-09-20T23:19:32.382Z,7.22
2022-09-20T23:22:00.409Z,6.70
2022-09-20T23:24:28.330Z,7.07
2022-09-20T23:26:56.670Z,6.67
2022-09-20T23:29:26.133Z,6.54
2022-09-20T23:31:54.542Z,6.50
2022-09-20T23:34:22.565Z,6.51
2022-09-20T23:36:50.727Z,6.51
2022-09-20T23:39:18.667Z,6.66
2022-09-20T23:41:50.821Z,6.79
2022-09-20T23:44:19.450Z,6.81
2022-09-20T23:46:48.799Z,6.77
2022-09-20T23:49:16.810Z,6.70
2022-09-20T23:51:44.738Z,6.32
2022-09-20T23:54:12.702Z,6.42
2022-09-20T23:56:42.692Z,6.37
2022-09-20T23:59:10.744Z,6.35
